Time;durP1;ratioP1;P1;durP2;ratioP2;P2;SDS_P1;SDS_P2;PMS_P1;PMS_P2;Temp;Humidity;BMP_temperature;BMP_pressure;BME280_temperature;BME280_humidity;BME280_pressure;Samples;Min_cycle;Max_cycle;Signal;HPM_P1;HPM_P2
2022/06/08 00:02:16;;;;;;;5.63;2.70;;;15.60;93.30;;;;;;5014797;28;20417;-74
2022/06/08 00:04:42;;;;;;;3.83;2.37;;;15.70;93.10;;;;;;5018454;28;20431;-73
2022/06/08 00:07:09;;;;;;;3.00;2.50;;;15.60;93.10;;;;;;5009623;28;20452;-73
2022/06/08 00:09:35;;;;;;;3.60;2.53;;;15.60;93.00;;;;;;5010021;28;20871;-72
2022/06/08 00:12:03;;;;;;;3.40;2.37;;;15.60;93.10;;;;;;5014772;28;20504;-73
2022/06/08 00:14:28;;;;;;;3.80;2.50;;;15.60;92.90;;;;;;5012583;28;20436;-74
2022/06/08 00:16:54;;;;;;;4.13;2.63;;;15.70;92.50;;;;;;5007458;28;20462;-74
2022/06/08 00:19:20;;;;;;;5.10;2.90;;;15.70;92.30;;;;;;5019221;28;20201;-74
2022/06/08 00:21:46;;;;;;;4.73;2.63;;;15.70;92.30;;;;;;5024167;28;20258;-73
2022/06/08 00:24:11;;;;;;;5.10;2.90;;;15.70;92.10;;;;;;5014811;28;20569;-72
2022/06/08 00:26:37;;;;;;;5.83;3.23;;;15.80;91.80;;;;;;5010596;28;20232;-74
2022/06/08 00:29:04;;;;;;;4.07;2.30;;;15.90;91.70;;;;;;5017989;28;20223;-74
2022/06/08 00:31:31;;;;;;;4.03;2.60;;;15.90;91.30;;;;;;5007386;28;20195;-73
2022/06/08 00:33:57;;;;;;;2.93;2.33;;;15.90;91.10;;;;;;5021248;28;20515;-73
2022/06/08 00:36:22;;;;;;;6.27;2.20;;;15.90;90.90;;;;;;5007200;28;21097;-75
2022/06/08 00:38:48;;;;;;;9.00;2.80;;;16.00;91.00;;;;;;5012021;28;20231;-73
2022/06/08 00:41:45;;;;;;;3.70;2.37;;;15.90;90.70;;;;;;5019072;28;20213;-73
2022/06/08 00:44:42;;;;;;;4.03;2.43;;;15.90;90.50;;;;;;4988548;28;20329;-73
2022/06/08 00:47:11;;;;;;;5.40;2.60;;;15.90;90.60;;;;;;4985773;28;20966;-74
2022/06/08 00:49:43;;;;;;;3.70;2.27;;;15.90;90.40;;;;;;4996119;28;20425;-73
2022/06/08 00:52:12;;;;;;;5.90;3.27;;;15.90;90.20;;;;;;4988755;28;21006;-74
2022/06/08 00:54:43;;;;;;;3.43;2.47;;;15.90;90.30;;;;;;4992878;28;20428;-74
2022/06/08 00:57:19;;;;;;;2.87;2.33;;;15.90;90.20;;;;;;4994987;28;20607;-74
2022/06/08 00:59:54;;;;;;;3.57;2.43;;;15.80;90.30;;;;;;4995291;28;20472;-73
2022/06/08 01:02:20;;;;;;;4.03;2.67;;;15.80;90.30;;;;;;4992273;28;20478;-72
2022/06/08 01:04:45;;;;;;;3.67;2.33;;;15.80;90.30;;;;;;4993662;28;20429;-73
2022/06/08 01:07:20;;;;;;;3.80;2.90;;;15.80;90.20;;;;;;5008765;28;20221;-73
2022/06/08 01:09:47;;;;;;;4.13;2.50;;;15.80;90.10;;;;;;4996768;28;21274;-74
2022/06/08 01:12:18;;;;;;;3.87;2.80;;;15.80;90.20;;;;;;4993597;28;20453;-73
2022/06/08 01:14:44;;;;;;;4.43;2.60;;;15.80;90.30;;;;;;4991697;28;20815;-72
2022/06/08 01:17:17;;;;;;;6.00;2.90;;;15.80;90.20;;;;;;4990627;28;20549;-74
2022/06/08 01:19:45;;;;;;;5.40;2.87;;;15.80;90.30;;;;;;4994959;28;20480;-74
2022/06/08 01:22:14;;;;;;;4.90;3.00;;;15.70;90.20;;;;;;5016867;28;20425;-72
2022/06/08 01:24:41;;;;;;;3.00;2.63;;;15.70;90.20;;;;;;5014108;28;20462;-72
2022/06/08 01:27:30;;;;;;;4.20;2.60;;;15.70;90.20;;;;;;5016446;28;20455;-74
2022/06/08 01:30:13;;;;;;;5.27;3.10;;;15.70;90.20;;;;;;5015333;28;20424;-73
2022/06/08 01:33:11;;;;;;;4.00;2.87;;;15.70;90.20;;;;;;5011983;28;20420;-73
2022/06/08 01:36:04;;;;;;;3.30;2.60;;;15.60;90.30;;;;;;5013464;28;20428;-72
2022/06/08 01:38:32;;;;;;;3.80;2.53;;;15.60;90.20;;;;;;5013997;28;20542;-75
2022/06/08 01:41:29;;;;;;;4.67;2.70;;;15.60;90.20;;;;;;5013427;28;20487;-74
2022/06/08 01:44:28;;;;;;;4.20;2.63;;;15.60;90.30;;;;;;5021518;28;20417;-74
2022/06/08 01:47:02;;;;;;;8.43;2.40;;;15.60;90.20;;;;;;5009282;28;20805;-74
2022/06/08 01:49:38;;;;;;;7.63;3.00;;;15.60;90.10;;;;;;5017779;28;20411;-74
2022/06/08 01:52:19;;;;;;;4.60;2.23;;;15.60;90.10;;;;;;5012114;28;20456;-72
2022/06/08 01:54:50;;;;;;;5.10;2.77;;;15.60;90.20;;;;;;5012122;28;20924;-74
2022/06/08 01:57:46;;;;;;;4.90;3.23;;;15.60;90.20;;;;;;5008121;28;20510;-74
2022/06/08 02:00:21;;;;;;;3.77;3.20;;;15.60;90.30;;;;;;5010889;28;20554;-74
2022/06/08 02:02:51;;;;;;;5.57;2.87;;;15.50;90.50;;;;;;5026594;28;20990;-75
2022/06/08 02:05:28;;;;;;;4.77;3.23;;;15.50;90.70;;;;;;5014111;28;20444;-74
2022/06/08 02:08:24;;;;;;;4.57;3.00;;;15.50;90.90;;;;;;5012852;28;20453;-75
2022/06/08 02:11:24;;;;;;;5.07;3.07;;;15.50;90.80;;;;;;5014148;28;20873;-74
2022/06/08 02:13:55;;;;;;;5.27;2.73;;;15.40;90.80;;;;;;5020246;28;20432;-75
2022/06/08 02:16:24;;;;;;;3.63;2.93;;;15.40;90.80;;;;;;5015372;28;20470;-76
2022/06/08 02:19:12;;;;;;;4.73;2.60;;;15.40;90.80;;;;;;5023759;28;20434;-75
2022/06/08 02:21:47;;;;;;;8.93;2.80;;;15.40;90.70;;;;;;5020968;28;20464;-75
2022/06/08 02:24:22;;;;;;;7.60;3.03;;;15.40;90.60;;;;;;5013423;28;20478;-76
2022/06/08 02:27:00;;;;;;;3.77;3.03;;;15.40;90.40;;;;;;5012814;28;21066;-75
2022/06/08 02:29:36;;;;;;;4.93;2.73;;;15.40;90.30;;;;;;5010534;28;21022;-75
2022/06/08 02:35:15;;;;;;;6.03;3.07;;;15.40;90.00;;;;;;5020650;28;20466;-75
2022/06/08 02:37:43;;;;;;;7.40;3.00;;;15.40;89.90;;;;;;5009496;28;20481;-75
2022/06/08 02:40:23;;;;;;;3.20;2.60;;;15.30;89.90;;;;;;5013259;28;20461;-75
2022/06/08 02:42:54;;;;;;;4.77;2.80;;;15.30;90.00;;;;;;5015233;28;20442;-75
2022/06/08 02:45:34;;;;;;;5.97;3.20;;;15.30;90.10;;;;;;5018253;28;20417;-75
2022/06/08 02:48:04;;;;;;;3.23;2.70;;;15.20;90.50;;;;;;5017961;28;20442;-73
2022/06/08 02:50:31;;;;;;;5.00;2.77;;;15.20;90.80;;;;;;5013964;28;20439;-75
2022/06/08 02:53:09;;;;;;;4.13;3.10;;;15.20;90.80;;;;;;5020863;28;20458;-75
2022/06/08 02:55:35;;;;;;;6.47;3.00;;;15.00;91.40;;;;;;5016330;28;20420;-74
2022/06/08 02:58:10;;;;;;;5.03;3.10;;;15.00;91.80;;;;;;5017671;28;20488;-74
2022/06/08 03:00:50;;;;;;;3.53;2.87;;;15.00;91.80;;;;;;5017957;28;20212;-74
2022/06/08 03:03:25;;;;;;;8.40;3.83;;;14.90;92.00;;;;;;5004365;28;20429;-73
2022/06/08 03:06:08;;;;;;;5.27;2.87;;;14.90;92.20;;;;;;5019780;28;20428;-74
2022/06/08 03:08:42;;;;;;;6.43;3.47;;;14.80;92.50;;;;;;5015256;28;20430;-74
2022/06/08 03:11:10;;;;;;;6.40;3.60;;;14.60;92.60;;;;;;5015640;28;20407;-74
2022/06/08 03:13:53;;;;;;;6.07;3.07;;;14.60;92.90;;;;;;5017107;28;20425;-75
2022/06/08 03:16:31;;;;;;;4.73;3.00;;;14.70;92.80;;;;;;5010938;28;20438;-75
2022/06/08 03:18:58;;;;;;;5.50;3.00;;;14.60;92.70;;;;;;5013483;28;20409;-74
2022/06/08 03:21:25;;;;;;;3.50;2.87;;;14.60;92.70;;;;;;5012050;28;20458;-74
2022/06/08 03:23:52;;;;;;;8.13;3.67;;;14.60;92.90;;;;;;5009939;28;20924;-75
2022/06/08 03:26:20;;;;;;;6.23;3.70;;;14.70;92.70;;;;;;5012535;28;20409;-74
2022/06/08 03:28:46;;;;;;;4.13;3.00;;;14.70;92.30;;;;;;5012665;28;20430;-74
2022/06/08 03:31:12;;;;;;;5.43;3.60;;;14.70;92.30;;;;;;5013330;28;20418;-73
2022/06/08 03:33:38;;;;;;;5.20;3.17;;;14.60;92.40;;;;;;5011960;28;20426;-74
2022/06/08 03:36:04;;;;;;;4.73;3.70;;;14.60;92.70;;;;;;5012063;28;20547;-73
2022/06/08 03:38:30;;;;;;;7.20;4.13;;;14.70;92.60;;;;;;5011755;28;20247;-73
2022/06/08 03:40:56;;;;;;;6.50;3.53;;;14.70;92.40;;;;;;5024641;28;20468;-73
2022/06/08 03:43:22;;;;;;;7.90;3.30;;;14.70;92.40;;;;;;5017560;28;20939;-74
2022/06/08 03:45:51;;;;;;;6.20;3.33;;;14.80;92.60;;;;;;5015301;28;20186;-74
2022/06/08 03:48:18;;;;;;;5.70;3.43;;;14.80;92.50;;;;;;5012498;28;20203;-74
2022/06/08 03:50:45;;;;;;;6.37;3.20;;;14.90;92.40;;;;;;5013405;28;20429;-74
2022/06/08 03:53:19;;;;;;;3.67;2.70;;;15.00;92.20;;;;;;5020301;28;20431;-74
2022/06/08 03:55:47;;;;;;;5.87;3.50;;;15.10;91.90;;;;;;5017622;28;20488;-74
2022/06/08 03:58:13;;;;;;;5.03;2.97;;;15.10;91.50;;;;;;5020183;28;20484;-75
2022/06/08 04:00:41;;;;;;;12.33;3.80;;;15.20;91.40;;;;;;5016771;28;20480;-74
2022/06/08 04:03:09;;;;;;;5.57;3.50;;;15.20;91.20;;;;;;5030104;28;20413;-75
2022/06/08 04:05:35;;;;;;;5.73;3.30;;;15.20;91.00;;;;;;5022067;28;20488;-75
2022/06/08 04:08:01;;;;;;;7.97;3.93;;;15.20;90.20;;;;;;5019657;28;20510;-75
2022/06/08 04:10:27;;;;;;;5.90;3.13;;;15.20;90.10;;;;;;5013008;28;20429;-75
2022/06/08 04:12:55;;;;;;;4.87;2.90;;;15.20;89.90;;;;;;5017885;28;20546;-75
2022/06/08 04:18:05;;;;;;;6.23;2.60;;;15.40;89.00;;;;;;5010597;28;20996;-78
2022/06/08 04:20:32;;;;;;;5.30;2.77;;;15.40;88.00;;;;;;5019031;28;20460;-78
2022/06/08 04:22:58;;;;;;;3.40;2.70;;;15.30;88.00;;;;;;5010224;28;20190;-78
2022/06/08 04:25:24;;;;;;;3.93;2.70;;;15.40;88.10;;;;;;5011110;28;20796;-78
2022/06/08 04:27:49;;;;;;;6.53;2.80;;;15.60;87.40;;;;;;5008541;28;20212;-78
2022/06/08 04:30:15;;;;;;;5.73;2.60;;;15.60;86.90;;;;;;5012938;28;20194;-79
2022/06/08 04:32:41;;;;;;;4.10;2.90;;;15.60;86.20;;;;;;5014151;28;20248;-77
2022/06/08 04:35:07;;;;;;;6.20;3.17;;;15.60;86.50;;;;;;5013638;28;20192;-78
2022/06/08 04:37:37;;;;;;;6.30;2.47;;;15.60;86.30;;;;;;5013975;28;20467;-79
2022/06/08 04:40:04;;;;;;;6.43;2.47;;;15.50;85.30;;;;;;5011627;28;20460;-77
2022/06/08 04:42:30;;;;;;;5.57;2.50;;;15.50;84.70;;;;;;5021259;28;20528;-76
2022/06/08 04:44:56;;;;;;;6.80;2.60;;;15.50;84.30;;;;;;5023124;28;21187;-78
2022/06/08 04:47:21;;;;;;;6.97;3.10;;;15.60;84.60;;;;;;5008644;28;20293;-77
2022/06/08 04:49:47;;;;;;;10.73;3.40;;;15.60;84.70;;;;;;5016544;28;20186;-77
2022/06/08 04:52:13;;;;;;;8.63;2.30;;;15.60;85.20;;;;;;5016192;28;20262;-77
2022/06/08 04:54:39;;;;;;;4.03;2.30;;;15.70;84.40;;;;;;5022532;28;20518;-77
2022/06/08 04:57:05;;;;;;;7.43;3.30;;;15.70;84.70;;;;;;5015216;28;20257;-76
2022/06/08 04:59:31;;;;;;;7.40;2.30;;;15.60;82.80;;;;;;5012783;28;20577;-77
2022/06/08 05:01:56;;;;;;;5.10;2.97;;;15.70;82.80;;;;;;5016784;28;20422;-78
2022/06/08 05:04:22;;;;;;;5.40;2.47;;;15.80;82.40;;;;;;5030356;28;20177;-77
2022/06/08 05:06:48;;;;;;;3.77;2.53;;;15.60;83.60;;;;;;5017985;28;20297;-78
2022/06/08 05:09:14;;;;;;;4.50;2.80;;;15.60;84.00;;;;;;5022030;28;20189;-78
2022/06/08 05:11:40;;;;;;;3.73;2.20;;;15.70;84.10;;;;;;5019405;28;20421;-75
2022/06/08 05:14:05;;;;;;;8.50;2.47;;;15.70;84.40;;;;;;5017897;28;20571;-77
2022/06/08 05:16:31;;;;;;;6.57;3.00;;;15.70;84.10;;;;;;5012686;28;20268;-76
2022/06/08 05:18:57;;;;;;;4.80;2.73;;;15.70;84.30;;;;;;5014672;28;20193;-75
2022/06/08 05:21:23;;;;;;;6.77;2.73;;;15.70;84.70;;;;;;5017671;28;20470;-76
2022/06/08 05:23:49;;;;;;;2.90;2.30;;;15.80;83.70;;;;;;5015123;28;20189;-76
2022/06/08 05:26:15;;;;;;;3.30;2.40;;;15.80;83.60;;;;;;5011563;28;20794;-76
2022/06/08 05:28:41;;;;;;;6.00;2.90;;;16.00;81.80;;;;;;5020586;28;20436;-76
2022/06/08 05:31:07;;;;;;;4.77;2.80;;;16.10;81.50;;;;;;5014009;28;20308;-75
2022/06/08 05:33:33;;;;;;;3.57;2.17;;;16.30;80.60;;;;;;5018034;28;20482;-75
2022/06/08 05:35:59;;;;;;;5.23;2.53;;;16.30;80.20;;;;;;5013382;28;20425;-76
2022/06/08 05:38:25;;;;;;;3.70;2.77;;;16.30;80.30;;;;;;5013631;28;20437;-77
2022/06/08 05:40:51;;;;;;;4.90;2.17;;;16.30;80.20;;;;;;5015730;28;20240;-75
2022/06/08 05:43:17;;;;;;;3.10;2.10;;;16.30;80.50;;;;;;5021680;28;20660;-76
2022/06/08 05:45:45;;;;;;;5.53;2.53;;;16.30;80.50;;;;;;5014357;28;20239;-75
2022/06/08 05:48:11;;;;;;;8.70;2.87;;;16.40;80.30;;;;;;5012626;28;20495;-76
2022/06/08 05:50:38;;;;;;;2.80;1.93;;;16.40;80.30;;;;;;5018734;28;20456;-76
2022/06/08 05:53:05;;;;;;;6.07;2.93;;;16.40;80.30;;;;;;5012813;28;20432;-77
2022/06/08 05:55:32;;;;;;;7.17;2.63;;;16.40;80.00;;;;;;5022553;28;20434;-77
2022/06/08 05:57:57;;;;;;;3.47;2.13;;;16.50;80.00;;;;;;5006620;28;20477;-77
2022/06/08 06:00:28;;;;;;;6.87;2.60;;;16.60;79.50;;;;;;5013524;28;20567;-77
2022/06/08 06:02:54;;;;;;;4.07;2.10;;;16.60;79.50;;;;;;5014064;28;20181;-76
2022/06/08 06:05:23;;;;;;;5.03;2.13;;;16.70;78.90;;;;;;5013545;28;20423;-76
2022/06/08 06:07:49;;;;;;;4.00;2.10;;;16.70;79.30;;;;;;5015835;28;20458;-76
2022/06/08 06:10:17;;;;;;;3.60;1.90;;;16.80;78.60;;;;;;5017360;28;20447;-77
2022/06/08 06:12:43;;;;;;;5.83;2.63;;;16.90;78.60;;;;;;5024461;28;20982;-75
2022/06/08 06:15:11;;;;;;;6.80;2.57;;;17.00;77.40;;;;;;5016228;28;20467;-79
2022/06/08 06:17:37;;;;;;;4.20;2.17;;;17.00;76.10;;;;;;5013247;28;20209;-75
2022/06/08 06:20:04;;;;;;;7.87;2.57;;;17.10;76.10;;;;;;5013091;28;20470;-78
2022/06/08 06:22:33;;;;;;;7.43;2.47;;;17.10;76.10;;;;;;5019646;28;20215;-74
2022/06/08 06:24:59;;;;;;;3.97;2.27;;;17.00;76.40;;;;;;5022940;28;20423;-73
2022/06/08 06:27:26;;;;;;;6.40;2.23;;;17.00;76.80;;;;;;5016798;28;20466;-73
2022/06/08 06:29:52;;;;;;;3.10;2.20;;;17.00;76.80;;;;;;5014102;28;20448;-73
2022/06/08 06:32:30;;;;;;;8.17;2.73;;;17.20;76.50;;;;;;5014957;28;20432;-74
2022/06/08 06:34:58;;;;;;;3.77;2.30;;;17.30;76.20;;;;;;5013286;28;20424;-75
2022/06/08 06:37:25;;;;;;;6.50;2.23;;;17.50;75.40;;;;;;5012885;28;21006;-75
2022/06/08 06:39:51;;;;;;;6.73;2.70;;;17.60;74.90;;;;;;5011613;28;20456;-74
2022/06/08 06:42:27;;;;;;;3.67;2.20;;;17.70;74.80;;;;;;5012663;28;20515;-76
2022/06/08 06:44:53;;;;;;;5.53;1.97;;;17.80;73.50;;;;;;5003839;28;20428;-74
2022/06/08 06:47:20;;;;;;;5.97;2.70;;;18.00;73.30;;;;;;5012683;28;20445;-74
2022/06/08 06:49:46;;;;;;;4.90;2.50;;;17.90;73.30;;;;;;5016407;28;20464;-75
2022/06/08 06:52:14;;;;;;;3.00;2.27;;;17.90;74.00;;;;;;5019472;28;20839;-74
2022/06/08 06:54:41;;;;;;;6.97;2.10;;;17.90;73.70;;;;;;5016878;28;20429;-75
2022/06/08 06:57:07;;;;;;;5.03;2.53;;;18.00;73.90;;;;;;5013954;28;20436;-75
2022/06/08 06:59:33;;;;;;;6.10;2.33;;;17.90;74.20;;;;;;5017461;28;20413;-73
2022/06/08 07:01:59;;;;;;;3.47;2.20;;;17.90;74.30;;;;;;5016961;28;20817;-74
2022/06/08 07:04:25;;;;;;;9.40;2.77;;;18.00;73.90;;;;;;5022301;28;20181;-74
2022/06/08 07:06:50;;;;;;;4.60;2.90;;;18.10;73.20;;;;;;5017872;28;20206;-76
2022/06/08 07:09:16;;;;;;;4.03;1.93;;;18.10;72.90;;;;;;5015365;28;20935;-74
2022/06/08 07:11:42;;;;;;;4.37;2.10;;;18.00;73.20;;;;;;5013432;28;20278;-75
2022/06/08 07:14:16;;;;;;;12.80;2.67;;;18.00;73.50;;;;;;5014074;28;20185;-74
2022/06/08 07:16:43;;;;;;;5.17;3.00;;;18.00;73.70;;;;;;5016944;28;20970;-75
2022/06/08 07:19:09;;;;;;;5.30;2.40;;;18.00;74.20;;;;;;5015175;28;20452;-73
2022/06/08 07:21:35;;;;;;;4.13;2.40;;;18.00;74.50;;;;;;5022380;28;20464;-72
2022/06/08 07:24:01;;;;;;;6.60;2.37;;;18.00;74.80;;;;;;5015836;28;20425;-73
2022/06/08 07:26:28;;;;;;;4.93;2.30;;;18.00;74.60;;;;;;5012273;28;20956;-76
2022/06/08 07:28:54;;;;;;;6.20;2.53;;;18.00;74.60;;;;;;5014708;28;20242;-73
2022/06/08 07:31:21;;;;;;;6.83;2.67;;;18.00;74.50;;;;;;5017844;28;20429;-74
2022/06/08 07:33:47;;;;;;;7.67;2.13;;;18.00;74.30;;;;;;5023079;28;20425;-74
2022/06/08 07:36:13;;;;;;;8.90;2.40;;;18.00;73.90;;;;;;5011498;28;20428;-73
2022/06/08 07:38:40;;;;;;;6.30;2.40;;;18.00;74.30;;;;;;5012945;28;20414;-74
2022/06/08 07:41:06;;;;;;;5.27;1.90;;;18.00;74.00;;;;;;5014326;28;20464;-74
2022/06/08 07:43:32;;;;;;;5.30;2.50;;;18.00;73.90;;;;;;5015655;28;20422;-74
2022/06/08 07:45:58;;;;;;;4.73;2.50;;;18.00;73.90;;;;;;5016981;28;20421;-76
2022/06/08 07:51:09;;;;;;;5.60;2.10;;;18.00;73.50;;;;;;5009979;28;20240;-75
2022/06/08 07:53:35;;;;;;;4.73;2.10;;;18.00;72.90;;;;;;5013095;28;20421;-74
2022/06/08 07:56:02;;;;;;;4.77;2.03;;;18.00;73.20;;;;;;5012209;28;20463;-72
2022/06/08 07:58:27;;;;;;;3.83;2.00;;;18.10;72.70;;;;;;5009898;28;20460;-75
2022/06/08 08:00:53;;;;;;;8.40;2.60;;;18.10;73.20;;;;;;5020972;28;20471;-74
2022/06/08 08:03:20;;;;;;;3.60;1.80;;;18.20;73.30;;;;;;5013555;28;20186;-75
2022/06/08 08:05:46;;;;;;;3.63;2.20;;;18.20;73.20;;;;;;5020730;28;20196;-75
2022/06/08 08:08:14;;;;;;;5.10;2.10;;;18.30;72.40;;;;;;5013734;28;20985;-74
2022/06/08 08:10:40;;;;;;;3.87;1.97;;;18.40;72.10;;;;;;5014835;28;20439;-74
2022/06/08 08:13:08;;;;;;;4.73;2.07;;;18.40;72.10;;;;;;5022385;28;20448;-74
2022/06/08 08:15:33;;;;;;;5.10;2.10;;;18.50;72.10;;;;;;5031361;28;20521;-75
2022/06/08 08:17:59;;;;;;;7.20;2.53;;;18.50;71.40;;;;;;5012459;28;20543;-75
2022/06/08 08:20:28;;;;;;;7.33;2.50;;;18.60;71.70;;;;;;5013150;28;20844;-74
2022/06/08 08:22:55;;;;;;;5.87;2.10;;;18.70;71.40;;;;;;5020282;28;20189;-74
2022/06/08 08:25:22;;;;;;;5.47;2.30;;;18.80;70.80;;;;;;5022441;28;20996;-74
2022/06/08 08:27:49;;;;;;;3.23;2.30;;;18.90;69.80;;;;;;5011110;28;20460;-74
2022/06/08 08:30:17;;;;;;;5.93;2.20;;;19.00;70.10;;;;;;5015394;28;20470;-75
2022/06/08 08:32:43;;;;;;;4.90;2.20;;;19.10;68.50;;;;;;5021784;28;20917;-74
2022/06/08 08:35:10;;;;;;;3.80;2.10;;;19.10;67.70;;;;;;5017294;28;20527;-75
2022/06/08 08:37:36;;;;;;;6.83;2.60;;;19.20;67.60;;;;;;5014476;28;20460;-74
2022/06/08 08:40:04;;;;;;;3.53;2.23;;;19.20;67.60;;;;;;5012176;28;20461;-73
2022/06/08 08:42:30;;;;;;;5.73;2.63;;;19.30;67.50;;;;;;5013511;28;20425;-76
2022/06/08 08:44:56;;;;;;;6.17;2.07;;;19.40;68.00;;;;;;5011265;28;20483;-74
2022/06/08 08:48:09;;;;;;;5.63;1.90;;;19.50;67.50;;;;;;5011037;28;20337;-77
2022/06/08 08:50:54;;;;;;;3.00;1.80;;;19.60;66.70;;;;;;5011484;28;20858;-75
2022/06/08 08:53:26;;;;;;;5.33;1.50;;;19.70;65.60;;;;;;5018989;28;20430;-74
2022/06/08 08:56:09;;;;;;;3.80;1.80;;;19.70;65.70;;;;;;5013230;28;20423;-74
2022/06/08 08:58:38;;;;;;;5.70;2.63;;;19.80;65.60;;;;;;5021225;28;20945;-73
2022/06/08 09:01:23;;;;;;;4.07;2.07;;;19.80;67.00;;;;;;5012136;28;20471;-73
2022/06/08 09:04:06;;;;;;;3.40;2.03;;;19.90;67.50;;;;;;5010669;28;20443;-74
2022/06/08 09:06:33;;;;;;;3.50;1.80;;;20.00;67.00;;;;;;5008589;28;20457;-74
2022/06/08 09:09:03;;;;;;;2.40;1.47;;;20.10;65.00;;;;;;5020112;28;20500;-75
2022/06/08 09:11:34;;;;;;;2.10;1.70;;;20.30;61.20;;;;;;5014946;28;20424;-76
2022/06/08 09:14:22;;;;;;;8.93;2.00;;;20.30;63.40;;;;;;5017175;28;20809;-74
2022/06/08 09:17:15;;;;;;;4.33;1.70;;;20.30;62.80;;;;;;5006878;28;20445;-75
2022/06/08 09:19:48;;;;;;;6.60;1.73;;;20.40;61.70;;;;;;5010031;28;20444;-73
2022/06/08 09:22:21;;;;;;;3.63;2.00;;;20.50;62.30;;;;;;5010732;28;20982;-75
2022/06/08 09:25:24;;;;;;;7.70;2.60;;;20.60;63.20;;;;;;5011301;28;20434;-72
2022/06/08 09:27:52;;;;;;;6.77;2.17;;;20.50;63.90;;;;;;5029297;28;20637;-74
2022/06/08 09:30:24;;;;;;;4.40;2.40;;;20.50;64.50;;;;;;5036101;28;20915;-74
2022/06/08 09:32:59;;;;;;;18.23;6.50;;;20.70;64.40;;;;;;5009725;28;21012;-74
2022/06/08 09:35:36;;;;;;;20.30;8.67;;;20.70;63.80;;;;;;5041757;28;20542;-75
2022/06/08 09:38:06;;;;;;;6.37;2.90;;;20.80;64.10;;;;;;5040313;28;20467;-74
2022/06/08 09:41:13;;;;;;;4.13;2.20;;;20.90;63.80;;;;;;5039957;28;21091;-75
2022/06/08 09:43:57;;;;;;;5.07;2.30;;;20.90;62.60;;;;;;4978251;28;20591;-74
2022/06/08 09:53:21;;;;;;;4.73;1.83;;;21.20;58.10;;;;;;4989537;28;20433;-74
2022/06/08 09:56:11;;;;;;;5.83;1.70;;;21.40;57.30;;;;;;4978084;28;20432;-74
2022/06/08 09:58:42;;;;;;;5.07;1.47;;;21.60;56.00;;;;;;4980431;28;20632;-74
2022/06/08 10:01:49;;;;;;;3.20;1.90;;;21.80;55.00;;;;;;4977852;28;20561;-73
2022/06/08 10:04:21;;;;;;;4.50;1.87;;;22.00;55.60;;;;;;4907446;29;20528;-74
2022/06/08 10:07:09;;;;;;;5.13;1.80;;;22.50;53.70;;;;;;4892938;29;20536;-74
2022/06/08 10:09:37;;;;;;;3.57;1.93;;;22.60;53.70;;;;;;4879759;29;20442;-75
2022/06/08 10:12:14;;;;;;;3.27;1.60;;;22.40;51.30;;;;;;4913036;29;20512;-75
2022/06/08 10:15:05;;;;;;;4.73;1.90;;;22.20;52.00;;;;;;4897164;29;20445;-76
2022/06/08 10:17:45;;;;;;;2.20;1.20;;;22.10;51.30;;;;;;4895375;29;20509;-74
2022/06/08 10:20:41;;;;;;;2.53;1.60;;;22.20;51.60;;;;;;4921206;28;20496;-75
2022/06/08 10:23:23;;;;;;;4.63;1.80;;;22.40;51.30;;;;;;4957237;28;20426;-76
2022/06/08 10:25:53;;;;;;;2.10;1.40;;;22.40;51.80;;;;;;4954257;29;20418;-74
2022/06/08 10:28:22;;;;;;;2.30;1.50;;;22.40;51.30;;;;;;4955705;28;20454;-74
2022/06/08 10:30:57;;;;;;;3.77;1.47;;;22.50;51.80;;;;;;4957014;28;20829;-74
2022/06/08 10:33:39;;;;;;;3.10;1.40;;;22.40;51.80;;;;;;4954637;29;20452;-73
2022/06/08 10:36:08;;;;;;;3.73;1.30;;;22.50;51.70;;;;;;4953722;29;20429;-78
2022/06/08 10:38:37;;;;;;;3.30;1.60;;;22.80;51.60;;;;;;4954839;29;20479;-74
2022/06/08 10:43:59;;;;;;;3.73;1.90;;;23.60;50.30;;;;;;5020660;28;20416;-74
2022/06/08 10:46:47;;;;;;;5.10;2.00;;;23.80;49.00;;;;;;5025141;28;20439;-73
2022/06/08 10:49:40;;;;;;;1.90;1.70;;;24.10;47.90;;;;;;5028063;28;20510;-75
2022/06/08 10:52:25;;;;;;;3.43;1.53;;;24.10;46.90;;;;;;5012176;28;20458;-74
2022/06/08 10:55:14;;;;;;;4.10;2.00;;;24.40;46.90;;;;;;5026723;28;20464;-75
2022/06/08 10:57:52;;;;;;;6.83;2.10;;;24.70;46.60;;;;;;5016574;28;20462;-74
2022/06/08 11:00:24;;;;;;;3.20;1.30;;;24.50;43.90;;;;;;5019033;28;20824;-74
2022/06/08 11:03:00;;;;;;;1.60;1.40;;;24.60;43.40;;;;;;5013040;28;20436;-74
2022/06/08 11:05:31;;;;;;;4.20;1.93;;;24.50;44.50;;;;;;5014397;28;20502;-75
2022/06/08 11:08:06;;;;;;;8.33;2.13;;;24.70;42.00;;;;;;5012684;28;20434;-76
2022/06/08 11:10:51;;;;;;;3.80;1.60;;;25.20;41.80;;;;;;5019708;28;20777;-74
2022/06/08 11:13:23;;;;;;;2.87;1.80;;;25.10;41.50;;;;;;5015773;28;20557;-74
2022/06/08 11:16:05;;;;;;;2.80;1.60;;;25.20;43.20;;;;;;5021476;28;20445;-74
2022/06/08 11:19:05;;;;;;;3.10;1.50;;;25.50;41.60;;;;;;5008811;28;20441;-77
2022/06/08 11:21:52;;;;;;;8.13;1.80;;;25.70;41.90;;;;;;5007929;28;20490;-77
2022/06/08 11:24:26;;;;;;;3.17;1.57;;;25.70;41.80;;;;;;5012842;28;20418;-74
2022/06/08 11:27:22;;;;;;;3.80;1.40;;;25.60;40.60;;;;;;5009233;28;20442;-74
2022/06/08 11:30:26;;;;;;;5.83;1.60;;;25.00;39.20;;;;;;5009030;28;20431;-75
2022/06/08 11:32:52;;;;;;;4.33;1.47;;;24.90;40.60;;;;;;5013801;28;20441;-74
2022/06/08 11:35:42;;;;;;;3.87;1.50;;;24.60;39.90;;;;;;5017367;28;20424;-75
2022/06/08 11:38:32;;;;;;;3.90;1.60;;;24.50;41.90;;;;;;5017075;28;20204;-74
2022/06/08 11:41:26;;;;;;;3.33;1.30;;;24.80;41.60;;;;;;5013073;28;20539;-74
2022/06/08 11:43:52;;;;;;;1.80;1.40;;;24.90;41.10;;;;;;5012371;28;20910;-74
2022/06/08 11:46:28;;;;;;;2.63;1.53;;;24.70;42.00;;;;;;5011866;28;20419;-74
2022/06/08 11:48:56;;;;;;;2.50;1.50;;;24.40;42.20;;;;;;5012305;28;20173;-76
2022/06/08 11:51:38;;;;;;;3.40;1.40;;;24.20;42.80;;;;;;5017557;28;20474;-76
2022/06/08 11:54:17;;;;;;;3.30;1.53;;;23.90;44.10;;;;;;5012817;28;20418;-75
2022/06/08 11:57:14;;;;;;;3.90;1.63;;;24.00;44.50;;;;;;5010476;28;20465;-75
2022/06/08 11:59:43;;;;;;;4.57;1.70;;;24.10;44.30;;;;;;5012851;28;20430;-74
2022/06/08 12:02:24;;;;;;;2.60;1.70;;;24.30;43.80;;;;;;5013503;28;20462;-76
2022/06/08 12:04:57;;;;;;;2.97;1.70;;;24.60;43.70;;;;;;5017796;28;20493;-75
2022/06/08 12:07:37;;;;;;;2.70;1.47;;;24.90;42.40;;;;;;5011161;28;20817;-74
2022/06/08 12:10:10;;;;;;;1.60;1.20;;;24.70;42.00;;;;;;5012693;28;20424;-75
2022/06/08 12:12:36;;;;;;;1.77;1.40;;;24.70;42.00;;;;;;5012977;28;20420;-76
2022/06/08 12:15:24;;;;;;;1.60;1.40;;;25.00;41.90;;;;;;5012582;28;20477;-74
2022/06/08 12:17:50;;;;;;;4.10;1.60;;;25.20;40.60;;;;;;5008822;28;20210;-77
2022/06/08 12:20:40;;;;;;;2.57;1.50;;;25.40;39.90;;;;;;5017751;28;20556;-76
2022/06/08 12:23:06;;;;;;;3.20;1.47;;;25.90;39.20;;;;;;5008770;28;20172;-75
2022/06/08 12:25:32;;;;;;;2.10;1.17;;;26.00;38.40;;;;;;5020421;28;20444;-74
2022/06/08 12:28:18;;;;;;;1.50;1.30;;;25.50;39.00;;;;;;5015991;28;20530;-75
2022/06/08 12:30:44;;;;;;;3.00;1.50;;;25.50;39.50;;;;;;5013425;28;20431;-74
2022/06/08 12:33:19;;;;;;;2.10;1.37;;;25.30;39.60;;;;;;5015381;28;20418;-75
2022/06/08 12:35:58;;;;;;;2.60;1.30;;;25.40;40.40;;;;;;5015759;28;20424;-74
2022/06/08 12:38:26;;;;;;;3.97;1.40;;;25.20;39.60;;;;;;5014350;28;20440;-76
2022/06/08 12:41:02;;;;;;;2.53;1.20;;;25.00;40.70;;;;;;5012704;28;20469;-75
2022/06/08 12:44:03;;;;;;;1.83;1.23;;;25.20;40.80;;;;;;5019150;28;20420;-77
2022/06/08 12:46:34;;;;;;;2.63;1.40;;;25.10;40.60;;;;;;5008573;28;20433;-76
2022/06/08 12:49:09;;;;;;;2.90;1.70;;;25.20;40.70;;;;;;5014703;28;20888;-77
2022/06/08 12:51:40;;;;;;;2.03;1.50;;;25.10;40.70;;;;;;5017215;28;20415;-74
2022/06/08 12:54:35;;;;;;;2.83;1.20;;;24.80;41.80;;;;;;5018328;28;20430;-74
2022/06/08 12:57:13;;;;;;;4.73;1.43;;;24.60;40.80;;;;;;5005180;28;20531;-75
2022/06/08 12:59:41;;;;;;;2.93;1.40;;;24.80;42.20;;;;;;5015231;28;20456;-75
2022/06/08 13:02:31;;;;;;;3.67;1.50;;;24.90;41.40;;;;;;5018844;28;20471;-75
2022/06/08 13:04:58;;;;;;;2.57;1.30;;;24.90;41.20;;;;;;5012734;28;20841;-73
2022/06/08 13:07:29;;;;;;;3.63;1.50;;;25.10;40.60;;;;;;5010966;28;21041;-74
2022/06/08 13:09:55;;;;;;;4.27;1.50;;;25.40;40.20;;;;;;5014383;28;20464;-73
2022/06/08 13:12:27;;;;;;;3.17;1.73;;;25.60;39.80;;;;;;5017613;28;20925;-74
2022/06/08 13:14:53;;;;;;;2.40;1.63;;;25.60;40.20;;;;;;5010211;28;20468;-76
2022/06/08 13:17:20;;;;;;;3.40;1.50;;;25.40;40.20;;;;;;5019087;28;20651;-74
2022/06/08 13:19:46;;;;;;;4.60;1.73;;;25.50;40.40;;;;;;5017999;28;20509;-75
2022/06/08 13:22:13;;;;;;;4.40;1.73;;;25.60;39.50;;;;;;5018114;28;21191;-74
2022/06/08 13:24:39;;;;;;;5.90;1.80;;;25.70;39.90;;;;;;5020790;28;20431;-75
2022/06/08 13:27:12;;;;;;;2.60;1.47;;;25.60;40.60;;;;;;5011906;28;20481;-77
2022/06/08 13:29:39;;;;;;;3.27;1.50;;;25.40;40.80;;;;;;5015870;28;20422;-76
2022/06/08 13:32:17;;;;;;;3.20;1.30;;;25.10;40.60;;;;;;5014650;28;20485;-74